Terminal Aerodrome Forecast
Issued by NWS Northern Indiana

Home | Current Version | Previous Version | Graphics & Text | Print | Product List | Glossary On
Versions: 1 2 3 4 5 6 7 8 9 10 11 12 13 14 15 16
000
FTUS43 KIWX 150540
TAFFWA
TAF
KFWA 150540Z 1506/1606 20005KT P6SM SCT025 BKN035
     FM151300 23011G17KT P6SM BKN045
     FM151500 25012G20KT P6SM BKN025
     FM151800 27015G25KT P6SM BKN025
     FM152300 27012KT P6SM BKN035
     FM160400 24007KT P6SM BKN035=

USA.gov is the U.S. government's official web portal to all federal, state and local government web resources and services.